• Join FlightAware (Why Join?)
  • Login
  • US Flag 
04:48AM EDT


 

Airport Tracker/Info


-or-


 

Live Flight TrackerFlight Track Log ✈ AAL759 ✈ 11-May-2012 ✈ KLGA - KDFW

Flight Track Log - Related Links

Times and Time Zones

All times are in EDT time to prevent confusion due to time zone crossing. See the AAL759 flight status page for this flight to view local times or setup timezone preferences in your user account.

Time Position Orientation Groundspeed Altitude Reporting Facility
EDT Latitude Longitude Course Direction KTS MPH feet Rate Location/Type
03:56PM 40.7667 -73.9461 46° Northeast  Level FlightAware Approximate
03:57PM 40.8231 -73.8697 North 168 193 1,600  Level New York Center
03:57PM 40.8500 -73.8667 303° West 209 241 2,200 2,460 Climbing New York TRACON
03:58PM 40.8833 -73.9333 261° West 255 293 5,200 3,240 Climbing New York TRACON
04:00PM 40.8689 -74.0567 267° West 268 308 9,800 3,000 Climbing FlightAware ADS-B
04:00PM 40.8667 -74.1167 249° West 272 313 11,300 1,560 Climbing New York TRACON
04:01PM 40.8333 -74.2333 258° West 355 409 12,500 2,040 Climbing New York TRACON
04:03PM 40.8033 -74.4172 257° West 369 425 16,600 1,740 Climbing New York Center
04:04PM 40.7778 -74.5608 258° West 369 425 17,000 180 Climbing New York Center
04:05PM 40.7594 -74.6778 256° West 369 425 17,000  Level New York Center
04:06PM 40.7292 -74.8350 255° West 375 432 17,000  Level New York Center
04:07PM 40.7014 -74.9756 253° West 370 426 17,100 720 Climbing New York Center
04:08PM 40.6717 -75.1050 240° Southwest 370 426 18,500 1,560 Climbing New York Center
04:09PM 40.6217 -75.2194 239° Southwest 385 443 20,200 1,800 Climbing New York Center
04:10PM 40.5625 -75.3494 238° Southwest 404 465 22,100 1,800 Climbing New York Center
04:11PM 40.5033 -75.4739 237° Southwest 410 472 23,900 1,800 Climbing New York Center
04:12PM 40.4283 -75.6269 239° Southwest 442 509 25,800 1,500 Climbing New York Center
04:13PM 40.3708 -75.7536 239° Southwest 447 514 27,000 1,200 Climbing New York Center
04:14PM 40.2997 -75.9092 244° Southwest 458 527 28,300 1,140 Climbing New York Center
04:15PM 40.2547 -76.0308 245° Southwest 453 521 29,300 1,380 Climbing New York Center
04:16PM 40.1903 -76.2108 261° West 462 532 31,200 1,620 Climbing New York Center
04:17PM 40.1728 -76.3589 263° West 430 495 32,600 840 Climbing New York Center
04:18PM 40.1592 -76.5128 253° West 430 495 33,000 900 Climbing New York Center
04:20PM 40.0994 -76.7739 243° Southwest 420 483 35,300 1,020 Climbing Washington Center
04:21PM 40.0439 -76.9139 241° Southwest 420 483 36,100 840 Climbing Washington Center
04:22PM 39.9819 -77.0617 243° Southwest 430 495 37,100 780 Climbing Washington Center
04:23PM 39.9303 -77.1933 242° Southwest 425 489 37,700 360 Climbing Washington Center
04:24PM 39.8742 -77.3325 243° Southwest 425 489 37,900 120 Climbing Washington Center
04:25PM 39.8200 -77.4689 240° Southwest 425 489 38,000  Climbing Washington Center
04:26PM 39.7617 -77.5997 243° Southwest 425 489 38,000  Level Washington Center
04:27PM 39.7072 -77.7358 241° Southwest 425 489 38,000  Level Washington Center
04:28PM 39.6506 -77.8689 241° Southwest 425 489 38,000  Level Washington Center
04:29PM 39.5958 -77.9992 242° Southwest 425 489 38,000  Level Washington Center
04:30PM 39.5411 -78.1319 243° Southwest 425 489 38,000  Level Washington Center
04:31PM 39.4903 -78.2592 241° Southwest 425 489 38,000  Level Washington Center
04:32PM 39.4353 -78.3889 241° Southwest 420 483 38,000  Level Washington Center
04:33PM 39.3803 -78.5183 241° Southwest 415 478 38,000  Level Washington Center
04:34PM 39.3314 -78.6344 241° Southwest 415 478 38,000  Level Washington Center
04:35PM 39.2761 -78.7608 241° Southwest 410 472 38,000  Level Washington Center
04:36PM 39.2206 -78.8897 241° Southwest 415 478 38,000  Level Washington Center
04:37PM 39.1647 -79.0211 251° West 415 478 38,000  Level Washington Center
04:38PM 39.1272 -79.1611 253° West 415 478 38,000  Level Washington Center
04:39PM 39.0939 -79.2986 250° West 410 472 38,000  Level Washington Center
04:40PM 39.0542 -79.4381 250° West 410 472 38,000  Level Washington Center
04:41PM 39.0094 -79.5933 249° West 421 484 38,000  Level Washington Center
04:43PM 38.9467 -79.8053 249° West 434 499 38,000  Level Indianapolis Center
04:44PM 38.9072 -79.9383 251° West 422 486 38,000  Level Indianapolis Center
04:45PM 38.8733 -80.0628 248° West 416 479 38,000  Level Indianapolis Center
04:46PM 38.8294 -80.2008 249° West 402 463 38,000  Level Indianapolis Center
04:47PM 38.7872 -80.3386 248° West 402 463 38,000  Level Indianapolis Center
04:48PM 38.7469 -80.4683 249° West 402 463 38,000  Level Indianapolis Center
04:49PM 38.7067 -80.6056 249° West 402 463 38,000  Level Indianapolis Center
04:50PM 38.6739 -80.7133 249° West 407 468 38,000  Level Indianapolis Center
04:51PM 38.6256 -80.8775 247° West 412 474 38,000  Level Indianapolis Center
04:52PM 38.5828 -81.0092 249° West 412 474 38,000  Level Indianapolis Center
04:53PM 38.5494 -81.1192 248° West 417 480 38,000  Level Indianapolis Center
04:54PM 38.5025 -81.2667 250° West 411 473 38,000 -60 Level Indianapolis Center
04:55PM 38.4448 -81.4646 249° West 402 463 37,900 -360 Descending FlightAware ADS-B
04:55PM 38.4242 -81.5314 248° West 402 463 37,400 -1,380 Descending FlightAware ADS-B
04:56PM 38.4037 -81.5977 248° West 404 465 36,500 -1,320 Descending FlightAware ADS-B
04:57PM 38.3768 -81.6837 248° West 402 463 35,900 -960 Descending FlightAware ADS-B
04:57PM 38.3539 -81.7570 251° West 405 466 35,400 -780 Descending FlightAware ADS-B
04:58PM 38.3328 -81.8333 250° West 412 474 35,000 -240 Descending Indianapolis Center
04:59PM 38.2931 -81.9694 251° West 412 474 35,000 -180 Level Indianapolis Center
05:00PM 38.2550 -82.1078 250° West 417 480 34,700 -540 Descending Indianapolis Center
05:01PM 38.2150 -82.2486 250° West 417 480 34,000 -360 Descending Indianapolis Center
05:02PM 38.1623 -82.4337 250° West 425 489 34,000  Level FlightAware ADS-B
05:02PM 38.1414 -82.5069 250° West 426 490 34,000  Level FlightAware ADS-B
05:03PM 38.1204 -82.5808 250° West 425 489 34,000  Level FlightAware ADS-B
05:04PM 38.0975 -82.6601 250° West 425 489 34,000  Level FlightAware ADS-B
05:04PM 38.0771 -82.7306 250° West 425 489 34,000  Level FlightAware ADS-B
05:05PM 38.0568 -82.8009 250° West 425 489 34,000  Level FlightAware ADS-B
05:05PM 38.0346 -82.8772 250° West 425 489 34,000  Level FlightAware ADS-B
05:06PM 38.0116 -82.9563 250° West 425 489 34,000  Level FlightAware ADS-B
05:06PM 37.9904 -83.0289 250° West 425 489 34,000  Level FlightAware ADS-B
05:07PM 37.9695 -83.1001 250° West 426 490 34,000  Level FlightAware ADS-B
05:07PM 37.9417 -83.1946 250° West 425 489 34,000  Level FlightAware ADS-B
05:08PM 37.9201 -83.2680 250° West 426 490 34,000  Level FlightAware ADS-B
05:09PM 37.8804 -83.4029 249° West 425 489 34,000  Level FlightAware ADS-B
05:09PM 37.8596 -83.4732 249° West 425 489 34,000  Level FlightAware ADS-B
05:10PM 37.8354 -83.5545 249° West 425 489 34,000  Level FlightAware ADS-B
05:10PM 37.8136 -83.6274 249° West 425 489 34,000  Level FlightAware ADS-B
05:11PM 37.7906 -83.7040 249° West 427 491 34,000  Level FlightAware ADS-B
05:12PM 37.7677 -83.7805 249° West 428 493 34,000  Level FlightAware ADS-B
05:12PM 37.7462 -83.8521 249° West 428 493 34,000  Level FlightAware ADS-B
05:13PM 37.7242 -83.9252 249° West 430 495 34,000  Level FlightAware ADS-B
05:13PM 37.7015 -84.0002 249° West 430 495 34,000  Level FlightAware ADS-B
05:14PM 37.6787 -84.0754 249° West 431 496 34,000  Level FlightAware ADS-B
05:14PM 37.6563 -84.1490 249° West 430 495 34,000  Level FlightAware ADS-B
05:15PM 37.6346 -84.2201 249° West 431 496 34,000  Level FlightAware ADS-B
05:15PM 37.6129 -84.2910 249° West 431 496 34,000  Level FlightAware ADS-B
05:16PM 37.5913 -84.3612 249° West 431 496 34,000  Level FlightAware ADS-B
05:16PM 37.5678 -84.4374 249° West 431 496 34,000  Level FlightAware ADS-B
05:17PM 37.5461 -84.5077 249° West 431 496 34,000  Level FlightAware ADS-B
05:17PM 37.5234 -84.5808 249° West 432 497 34,000  Level FlightAware ADS-B
05:18PM 37.5014 -84.6519 249° West 430 495 34,000  Level FlightAware ADS-B
05:18PM 37.4794 -84.7223 249° West 430 495 34,000  Level FlightAware ADS-B
05:19PM 37.4577 -84.7923 249° West 430 495 34,000  Level FlightAware ADS-B
05:19PM 37.4361 -84.8624 249° West 428 493 34,000  Level FlightAware ADS-B
05:20PM 37.4143 -84.9327 249° West 427 491 34,000  Level FlightAware ADS-B
05:20PM 37.3921 -85.0038 248° West 425 489 34,000  Level FlightAware ADS-B
05:21PM 37.3699 -85.0746 248° West 425 489 34,000  Level FlightAware ADS-B
05:21PM 37.3482 -85.1433 248° West 423 487 34,000  Level FlightAware ADS-B
05:22PM 37.3266 -85.2116 248° West 420 483 34,000  Level FlightAware ADS-B
05:22PM 37.3051 -85.2795 248° West 416 479 34,000  Level FlightAware ADS-B
05:23PM 37.2826 -85.3507 248° West 414 476 34,000  Level FlightAware ADS-B
05:23PM 37.2570 -85.4309 248° West 412 474 34,000  Level FlightAware ADS-B
05:24PM 37.2348 -85.5003 248° West 409 471 34,000  Level FlightAware ADS-B
05:25PM 37.2070 -85.5873 248° West 407 468 34,000  Level FlightAware ADS-B
05:25PM 37.1810 -85.6683 248° West 407 468 34,000  Level FlightAware ADS-B
05:26PM 37.1447 -85.7814 248° West 407 468 34,000  Level FlightAware ADS-B
05:27PM 37.1220 -85.8518 248° West 406 467 34,000  Level FlightAware ADS-B
05:27PM 37.1007 -85.9176 248° West 407 468 34,000  Level FlightAware ADS-B
05:28PM 37.0792 -85.9840 248° West 408 470 34,000  Level FlightAware ADS-B
05:28PM 37.0570 -86.0521 248° West 408 470 34,000  Level FlightAware ADS-B
05:29PM 37.0342 -86.1221 248° West 409 471 34,000  Level FlightAware ADS-B
05:29PM 37.0122 -86.1893 248° West 410 472 34,000  Level FlightAware ADS-B
05:30PM 36.9905 -86.2555 248° West 411 473 34,000  Level FlightAware ADS-B
05:30PM 36.9679 -86.3241 248° West 413 475 34,000  Level FlightAware ADS-B
05:31PM 36.9447 -86.3948 245° Southwest 414 476 34,000  Level FlightAware ADS-B
05:31PM 36.9401 -86.4072 237° Southwest 416 479 34,000  Level FlightAware ADS-B
05:31PM 36.9142 -86.4574 226° Southwest 424 488 34,000  Level FlightAware ADS-B
05:32PM 36.8864 -86.4930 223° Southwest 431 496 34,000  Level FlightAware ADS-B
05:32PM 36.8425 -86.5448 223° Southwest 432 497 34,000  Level FlightAware ADS-B
05:33PM 36.7978 -86.5972 223° Southwest 432 497 34,000  Level FlightAware ADS-B
05:33PM 36.7461 -86.6578 223° Southwest 433 498 34,000  Level FlightAware ADS-B
05:34PM 36.7016 -86.7095 223° Southwest 433 498 34,000  Level FlightAware ADS-B
05:34PM 36.6578 -86.7606 224° Southwest 432 497 34,000  Level FlightAware ADS-B
05:36PM 36.5539 -86.8853 224° Southwest 435 501 34,000  Level Memphis Center
05:37PM 36.4672 -86.9894 223° Southwest 435 501 34,000  Level Memphis Center
05:38PM 36.3783 -87.0911 222° Southwest 440 506 34,000  Level Memphis Center
05:39PM 36.2911 -87.1875 223° Southwest 429 494 34,000  Level Memphis Center
05:40PM 36.2081 -87.2831 222° Southwest 418 481 34,000  Level Memphis Center
05:41PM 36.1228 -87.3789 223° Southwest 418 481 34,000  Level Memphis Center
05:42PM 36.0294 -87.4850 224° Southwest 418 481 34,000  Level Memphis Center
05:43PM 35.9461 -87.5828 221° Southwest 412 474 34,000  Level Memphis Center
05:44PM 35.8583 -87.6753 224° Southwest 412 474 34,000  Level Memphis Center
05:45PM 35.7750 -87.7753 222° Southwest 417 480 34,000  Level Memphis Center
05:46PM 35.6914 -87.8675 223° Southwest 411 473 34,000  Level Memphis Center
05:47PM 35.6100 -87.9617 222° Southwest 411 473 34,000  Level Memphis Center
05:48PM 35.5242 -88.0561 222° Southwest 411 473 34,000  Level Memphis Center
05:49PM 35.4422 -88.1475 222° Southwest 411 473 34,000  Level Memphis Center
05:50PM 35.3686 -88.2283 223° Southwest 404 465 34,000  Level Memphis Center
05:51PM 35.2889 -88.3194 222° Southwest 404 465 34,000  Level Memphis Center
05:52PM 35.2069 -88.4103 221° Southwest 404 465 34,000  Level Memphis Center
05:53PM 35.1186 -88.5039 222° Southwest 404 465 34,000  Level Memphis Center
05:54PM 35.0364 -88.5944 221° Southwest 404 465 34,000  Level Memphis Center
05:55PM 34.9522 -88.6850 221° Southwest 404 465 34,000  Level Memphis Center
05:56PM 34.8700 -88.7725 221° Southwest 404 465 34,000  Level Memphis Center
05:57PM 34.7875 -88.8600 222° Southwest 404 465 34,000  Level Memphis Center
05:58PM 34.7133 -88.9422 233° Southwest 404 465 34,000  Level Memphis Center
05:59PM 34.6478 -89.0494 266° West 404 465 34,000  Level Memphis Center
06:00PM 34.6408 -89.1833 266° West 383 441 34,000  Level Memphis Center
06:01PM 34.6336 -89.3172 265° West 397 457 34,000  Level Memphis Center
06:02PM 34.6242 -89.4511 266° West 402 463 34,000  Level Memphis Center
06:03PM 34.6147 -89.6000 265° West 407 468 34,000  Level Memphis Center
06:04PM 34.6053 -89.7364 266° West 407 468 34,000  Level Memphis Center
06:05PM 34.5975 -89.8728 267° West 407 468 34,000  Level Memphis Center
06:06PM 34.5917 -90.0089 265° West 407 468 34,000  Level Memphis Center
06:07PM 34.5817 -90.1478 267° West 407 468 34,000  Level Memphis Center
06:08PM 34.5756 -90.2714 266° West 407 468 34,000  Level Memphis Center
06:09PM 34.5672 -90.4075 265° West 407 468 34,000  Level Memphis Center
06:10PM 34.5567 -90.5489 266° West 413 475 34,000  Level Memphis Center
06:11PM 34.5478 -90.6900 265° West 418 481 34,000  Level Memphis Center
06:12PM 34.5369 -90.8311 266° West 423 487 34,000  Level Memphis Center
06:13PM 34.5281 -90.9747 265° West 423 487 34,000  Level Memphis Center
06:14PM 34.5167 -91.1283 265° West 423 487 34,000  Level Memphis Center
06:15PM 34.5075 -91.2669 265° West 423 487 34,000  Level Memphis Center
06:16PM 34.4981 -91.4081 263° West 423 487 34,000  Level Memphis Center
06:17PM 34.4842 -91.5464 265° West 423 487 34,000  Level Memphis Center
06:18PM 34.4744 -91.6847 263° West 423 487 34,000  Level Memphis Center
06:19PM 34.4628 -91.8081 264° West 423 487 34,000  Level Memphis Center
06:20PM 34.4506 -91.9464 265° West 423 487 34,000  Level Memphis Center
06:21PM 34.4406 -92.0872 265° West 423 487 34,000  Level Memphis Center
06:22PM 34.4300 -92.2256 265° West 423 487 34,000  Level Memphis Center
06:23PM 34.4197 -92.3639 255° West 423 487 34,000  Level Memphis Center
06:24PM 34.3903 -92.4939 258° West 418 481 34,000  Level Memphis Center
06:25PM 34.3669 -92.6292 255° West 413 475 34,000  Level Memphis Center
06:26PM 34.3375 -92.7619 258° West 413 475 34,000  Level Memphis Center
06:27PM 34.3117 -92.9094 255° West 413 475 34,000  Level Memphis Center
06:28PM 34.2817 -93.0417 253° West 413 475 34,000  Level Memphis Center
06:29PM 34.2497 -93.1714 257° West 413 475 34,000  Level Memphis Center
06:30PM 34.2236 -93.3061 253° West 413 475 34,000  Level Memphis Center
06:31PM 34.1911 -93.4381 257° West 413 475 34,000  Level Memphis Center
06:32PM 34.1592 -93.5986 255° West 414 476 34,000  Level Fort Worth Center
06:33PM 34.1297 -93.7303 255° West 414 476 34,000  Level Fort Worth Center
06:34PM 34.1000 -93.8594 254° West 414 476 34,000  Level Fort Worth Center
06:35PM 34.0683 -93.9911 255° West 414 476 34,000  Level Fort Worth Center
06:36PM 34.0386 -94.1253 255° West 414 476 34,000  Level Fort Worth Center
06:37PM 34.0086 -94.2592 261° West 421 484 34,000  Level Fort Worth Center
06:38PM 33.9892 -94.4000 280° West 421 484 34,000  Level Fort Worth Center
06:39PM 34.0092 -94.5422 281° West 421 484 34,000  Level Fort Worth Center
06:40PM 34.0311 -94.6817 280° West 426 490 34,000  Level Fort Worth Center
06:41PM 34.0528 -94.8264 278° West 431 496 34,000 -300 Level Fort Worth Center
06:42PM 34.0681 -94.9664 265° West 431 496 33,400 -840 Descending Fort Worth Center
06:43PM 34.0583 -95.1094 261° West 424 488 32,400 -960 Descending Fort Worth Center
06:44PM 34.0400 -95.2506 251° West 424 488 31,500 -1,020 Descending Fort Worth Center
06:45PM 34.0006 -95.3892 235° Southwest 429 494 30,400 -1,800 Descending Fort Worth Center
06:46PM 33.9336 -95.5058 238° Southwest 429 494 27,900 -2,100 Descending Fort Worth Center
06:47PM 33.8747 -95.6197 247° West 424 488 26,300 -1,800 Descending Fort Worth Center
06:48PM 33.8344 -95.7331 247° West 393 452 24,300 -2,160 Descending Fort Worth Center
06:49PM 33.7922 -95.8514 240° Southwest 380 437 22,000 -2,580 Descending Fort Worth Center
06:50PM 33.7433 -95.9547 229° Southwest 370 426 19,200 -2,640 Descending Fort Worth Center
06:51PM 33.6858 -96.0331 227° Southwest 360 414 16,800 -2,400 Descending Fort Worth Center
06:52PM 33.6136 -96.1264 232° Southwest 354 407 14,400 -2,100 Descending Fort Worth Center
06:53PM 33.5756 -96.1853 229° Southwest 324 373 13,200 -1,680 Descending FAA TRACON SMA TRACON (SMA)
06:53PM 33.5344 -96.2414 225° Southwest 322 371 12,100 -1,380 Descending FAA TRACON SMA TRACON (SMA)
06:54PM 33.4908 -96.2928 227° Southwest 317 365 11,400 -900 Descending FAA TRACON SMA TRACON (SMA)
06:55PM 33.4553 -96.3389 226° Southwest 305 351 10,900 -420 Descending FAA TRACON SMA TRACON (SMA)
06:55PM 33.4175 -96.3856 225° Southwest 281 323 10,900 -420 Level FAA TRACON SMA TRACON (SMA)
06:56PM 33.3794 -96.4311 224° Southwest 278 320 10,400 -900 Descending FAA TRACON SMA TRACON (SMA)
06:57PM 33.3458 -96.4706 224° Southwest 274 315 9,700 -1,380 Descending FAA TRACON SMA TRACON (SMA)
06:57PM 33.3083 -96.5139 205° Southwest 270 311 8,600 -1,560 Descending FAA TRACON SMA TRACON (SMA)
06:58PM 33.2622 -96.5394 202° Southwest 264 304 7,700 -1,500 Descending FAA TRACON SMA TRACON (SMA)
06:59PM 33.2197 -96.5597 203° Southwest 265 305 6,700 -1,080 Descending FAA TRACON SMA TRACON (SMA)
07:00PM 33.1533 -96.5939 194° South 254 292 5,900 -480 Descending FAA TRACON SMA TRACON (SMA)
07:00PM 33.1097 -96.6064 181° South 237 273 5,900  Level FAA TRACON SMA TRACON (SMA)
07:01PM 33.0647 -96.6078 182° South 233 268 5,900 -480 Level FAA TRACON SMA TRACON (SMA)
07:02PM 33.0244 -96.6097 183° South 234 269 5,300 -780 Descending FAA TRACON SMA TRACON (SMA)
07:02PM 32.9794 -96.6125 209° Southwest 232 267 4,900 -240 Descending FAA TRACON SMA TRACON (SMA)
07:03PM 32.9419 -96.6378 213° Southwest 226 260 5,000  Climbing FAA TRACON SMA TRACON (SMA)
07:04PM 32.9094 -96.6631 212° Southwest 229 264 4,900  Descending FAA TRACON SMA TRACON (SMA)
07:04PM 32.8728 -96.6908 221° Southwest 227 261 5,000  Climbing FAA TRACON SMA TRACON (SMA)
07:05PM 32.8400 -96.7242 223° Southwest 225 259 4,900 -420 Descending FAA TRACON SMA TRACON (SMA)
07:06PM 32.8114 -96.7561 223° Southwest 227 261 4,500 -600 Descending FAA TRACON SMA TRACON (SMA)
07:06PM 32.7797 -96.7914 262° West 229 264 4,100 -720 Descending FAA TRACON SMA TRACON (SMA)
07:07PM 32.7750 -96.8303 289° West 209 241 3,600 -840 Descending FAA TRACON SMA TRACON (SMA)
07:08PM 32.7867 -96.8708 315° West 192 221 3,000 -780 Descending FAA TRACON SMA TRACON (SMA)
07:08PM 32.8117 -96.9011 315° West 187 215 2,600 -600 Descending FAA TRACON SMA TRACON (SMA)